ビサウ の空港の天気 - METARとTAF

オスヴァルド・ヴィエイラ国際空港 ( GGOV / OXB ) - ギニアビサウ ビサウ
飛行場実況気象(Metar)
観測時間07/19 00:00 GMT (07/19 00:00 UTC)
風向・風速不定 2m/s
視程6000m
天気現象弱い雷雨
全天の4割程度の雲 雲底高度 150m
全天の8割程度の雲 雲底高度 430m
少しの雲 雲底高度 610m
気温25℃
湿度100%
気圧1015hPa
METARGGOV 190000Z VRB03KT 6000 -TSRA SCT005 BKN014 FEW020CB 25/25 Q1015 NOSIG
過去の天気等 Google飛行場航空写真 Wunderground天気予報

過去48時間のMETAR

飛行場予報(TAF)
発表時間: 7/18 23:00 GMT (7/18 23:00 UTC)
予報対象時間: 19日0時 GMT ~ 20日0時 GMT
風向・風速西 4m/s
視程10km以上
全天の8割程度の雲 雲底高度 430m
19日0時 GMT ~ 19日5時 GMT に一時的に
視程3000m
天気現象雷雨
全天を覆う雲 雲底高度 150m
全天の4割程度の雲 雲底高度 430m
少しの積乱雲 雲底高度 610m
TAF GGOV 182300Z 1900/1924 28008KT 9999 BKN014
TEMPO 1900/1905 3000 TSRA OVC005 SCT014 FEW020CB